createdAt,value
2022-12-08T00:02:38.221Z,12.80
2022-12-08T00:07:59.054Z,13.37
2022-12-08T00:13:00.795Z,12.57
2022-12-08T00:18:03.818Z,13.30
2022-12-08T00:23:05.595Z,13.77
2022-12-08T00:28:07.355Z,13.67
2022-12-08T00:33:10.516Z,13.57
2022-12-08T00:38:12.303Z,15.00
2022-12-08T00:43:14.062Z,15.03
2022-12-08T00:48:17.144Z,15.67
2022-12-08T00:53:18.874Z,15.53
2022-12-08T00:58:20.639Z,16.60
2022-12-08T01:03:23.903Z,16.13
2022-12-08T01:08:25.799Z,25.17
2022-12-08T01:13:27.955Z,18.07
2022-12-08T01:18:31.069Z,17.93
2022-12-08T01:23:32.847Z,16.17
2022-12-08T01:28:34.565Z,15.77
2022-12-08T01:33:37.631Z,16.77
2022-12-08T01:38:39.363Z,17.13
2022-12-08T01:43:50.911Z,15.97
2022-12-08T01:48:55.210Z,16.33
2022-12-08T01:53:56.939Z,15.13
2022-12-08T01:58:58.669Z,15.40
2022-12-08T02:04:02.595Z,15.40
2022-12-08T02:09:04.410Z,15.90
2022-12-08T02:14:06.708Z,16.67
2022-12-08T02:19:31.444Z,14.93
2022-12-08T02:24:36.238Z,15.63
2022-12-08T02:30:16.001Z,15.70
2022-12-08T02:35:20.491Z,14.80
2022-12-08T02:40:23.531Z,15.70
2022-12-08T02:45:26.194Z,14.57
2022-12-08T02:50:29.372Z,14.17
2022-12-08T02:55:33.798Z,14.40
2022-12-08T03:00:38.621Z,14.00
2022-12-08T03:06:01.063Z,12.70
2022-12-08T03:11:04.137Z,13.60
2022-12-08T03:16:06.693Z,11.90
2022-12-08T03:21:10.104Z,12.80
2022-12-08T03:26:12.701Z,12.87
2022-12-08T03:31:14.631Z,11.63
2022-12-08T03:36:17.772Z,11.90
2022-12-08T03:41:19.668Z,12.30
2022-12-08T03:51:24.600Z,12.00
2022-12-08T03:56:28.346Z,11.77
2022-12-08T04:01:30.112Z,10.97
2022-12-08T04:06:33.287Z,10.83
2022-12-08T04:11:35.073Z,13.07
2022-12-08T04:16:36.900Z,19.23
2022-12-08T04:21:39.996Z,14.90
2022-12-08T04:26:41.837Z,13.20
2022-12-08T04:31:43.702Z,12.53
2022-12-08T04:36:46.818Z,11.80
2022-12-08T04:41:48.570Z,10.90
2022-12-08T04:46:50.345Z,11.83
2022-12-08T04:51:53.397Z,11.20
2022-12-08T04:56:55.122Z,11.40
2022-12-08T05:01:56.958Z,12.30
2022-12-08T05:07:00.120Z,11.90
2022-12-08T05:12:01.856Z,11.60
2022-12-08T05:17:09.127Z,11.80
2022-12-08T05:22:12.787Z,19.40
2022-12-08T05:27:14.537Z,11.67
2022-12-08T05:32:16.288Z,13.50
2022-12-08T05:37:19.369Z,11.33
2022-12-08T05:42:24.736Z,11.03
2022-12-08T05:47:28.153Z,10.60
2022-12-08T05:52:33.796Z,10.90
2022-12-08T05:57:35.643Z,11.03
2022-12-08T06:02:37.477Z,11.70
2022-12-08T06:07:40.731Z,12.07
2022-12-08T06:12:42.515Z,13.57
2022-12-08T06:17:44.252Z,13.70
2022-12-08T06:22:47.293Z,15.73
2022-12-08T06:27:49.162Z,15.57
2022-12-08T06:32:50.906Z,16.97
2022-12-08T06:37:54.034Z,15.30
2022-12-08T06:42:56.065Z,16.17
2022-12-08T06:47:57.820Z,16.50
2022-12-08T06:53:05.231Z,16.77
2022-12-08T06:58:07.501Z,16.40
2022-12-08T07:03:09.312Z,16.07
2022-12-08T07:08:12.661Z,16.23
2022-12-08T07:13:14.504Z,17.30
2022-12-08T07:18:16.722Z,17.00
2022-12-08T07:23:19.802Z,18.37
2022-12-08T07:28:21.514Z,19.80
2022-12-08T07:33:24.154Z,20.90
2022-12-08T07:38:27.326Z,22.83
2022-12-08T07:43:29.043Z,22.17
2022-12-08T07:48:30.738Z,24.07
2022-12-08T07:53:33.999Z,23.97
2022-12-08T07:58:35.791Z,23.70
2022-12-08T08:03:37.604Z,23.80
2022-12-08T08:08:40.785Z,23.00
2022-12-08T08:13:42.575Z,22.97
2022-12-08T08:18:46.465Z,21.00
2022-12-08T08:23:49.609Z,19.13
2022-12-08T08:28:51.373Z,19.37
2022-12-08T08:33:53.193Z,17.30
2022-12-08T08:38:56.311Z,20.30
2022-12-08T08:43:58.075Z,19.67
2022-12-08T08:48:59.828Z,16.60
2022-12-08T08:54:02.940Z,14.67
2022-12-08T08:59:04.742Z,13.70
2022-12-08T09:04:06.600Z,13.90
2022-12-08T09:09:09.811Z,12.93
2022-12-08T09:14:11.878Z,13.97
2022-12-08T09:19:13.666Z,13.90
2022-12-08T09:24:16.793Z,13.47
2022-12-08T09:29:18.627Z,13.80
2022-12-08T09:34:20.519Z,15.77
2022-12-08T09:39:23.635Z,13.40
2022-12-08T09:44:46.765Z,14.10
2022-12-08T09:49:52.500Z,12.97
2022-12-08T09:54:55.985Z,13.13
2022-12-08T09:59:58.960Z,17.13
2022-12-08T10:05:00.822Z,14.47
2022-12-08T10:10:08.364Z,14.20
2022-12-08T10:15:22.880Z,14.60
2022-12-08T10:20:25.576Z,16.27
2022-12-08T10:25:30.347Z,17.07
2022-12-08T10:30:32.085Z,16.77
2022-12-08T10:35:43.128Z,16.40
2022-12-08T10:40:46.185Z,14.90
2022-12-08T10:45:47.923Z,15.97
2022-12-08T10:50:54.031Z,15.70
2022-12-08T10:56:07.960Z,13.60
2022-12-08T11:01:12.152Z,13.70
2022-12-08T11:06:16.431Z,12.90
2022-12-08T11:11:23.176Z,13.50
2022-12-08T11:16:29.447Z,13.97
2022-12-08T11:21:35.694Z,13.20
2022-12-08T11:26:38.715Z,12.23
2022-12-08T11:31:41.543Z,12.33
2022-12-08T11:36:43.288Z,11.77
2022-12-08T11:41:46.448Z,13.20
2022-12-08T11:46:50.005Z,11.10
2022-12-08T11:51:53.440Z,10.20
2022-12-08T11:56:57.266Z,10.90
2022-12-08T12:01:59.376Z,11.80
2022-12-08T12:07:42.340Z,12.80
2022-12-08T12:12:57.251Z,10.63
2022-12-08T12:18:00.030Z,8.50
2022-12-08T12:23:03.508Z,8.60
2022-12-08T12:28:07.031Z,10.00
2022-12-08T12:33:13.349Z,9.40
2022-12-08T12:38:39.196Z,7.37
2022-12-08T12:44:23.968Z,7.90
2022-12-08T12:50:14.754Z,8.20
2022-12-08T12:55:24.050Z,7.60
2022-12-08T13:00:27.400Z,7.37
2022-12-08T13:05:29.836Z,6.43
2022-12-08T13:10:32.376Z,6.57
2022-12-08T13:15:37.085Z,6.57
2022-12-08T13:20:42.296Z,6.37
2022-12-08T13:25:49.103Z,5.60
2022-12-08T13:30:53.072Z,6.67
2022-12-08T13:36:18.587Z,6.40
2022-12-08T13:41:22.097Z,7.60
2022-12-08T13:57:23.916Z,6.50
2022-12-08T14:02:28.695Z,6.77
2022-12-08T14:07:31.434Z,7.07
2022-12-08T14:12:33.143Z,6.93
2022-12-08T14:17:36.191Z,7.50
2022-12-08T14:22:38.961Z,6.80
2022-12-08T14:27:40.680Z,7.20
2022-12-08T14:32:44.880Z,7.83
2022-12-08T14:37:47.946Z,8.80
2022-12-08T14:42:51.189Z,8.57
2022-12-08T14:47:54.256Z,9.00
2022-12-08T14:52:56.011Z,8.23
2022-12-08T14:57:58.206Z,8.40
2022-12-08T15:03:05.224Z,7.50
2022-12-08T15:08:06.966Z,8.30
2022-12-08T15:13:21.921Z,8.43
2022-12-08T15:18:30.121Z,7.77
2022-12-08T15:23:32.950Z,8.50
2022-12-08T15:28:35.799Z,7.20
2022-12-08T15:33:39.250Z,9.20
2022-12-08T15:38:40.980Z,7.77
2022-12-08T15:43:42.711Z,9.70
2022-12-08T15:48:45.797Z,9.03
2022-12-08T15:53:47.487Z,8.60
2022-12-08T15:58:54.126Z,8.00
2022-12-08T16:09:21.311Z,8.93
2022-12-08T16:15:38.643Z,10.60
2022-12-08T16:19:46.423Z,14.80
2022-12-08T16:24:48.162Z,25.57
2022-12-08T16:29:50.131Z,22.23
2022-12-08T16:34:53.162Z,13.03
2022-12-08T16:39:57.014Z,12.50
2022-12-08T16:44:58.795Z,9.27
2022-12-08T16:50:03.757Z,9.10
2022-12-08T16:55:08.148Z,9.30
2022-12-08T17:00:11.576Z,24.40
2022-12-08T17:05:15.499Z,39.83
2022-12-08T17:10:18.533Z,26.30
2022-12-08T17:15:21.275Z,23.73
2022-12-08T17:20:25.693Z,22.90
2022-12-08T17:25:27.475Z,18.23
2022-12-08T17:30:29.228Z,14.10
2022-12-08T17:35:32.391Z,12.23
2022-12-08T17:40:34.109Z,11.30
2022-12-08T17:45:39.881Z,12.50
2022-12-08T17:50:43.907Z,12.50
2022-12-08T17:55:51.518Z,14.40
2022-12-08T18:00:53.357Z,17.57
2022-12-08T18:05:56.436Z,13.60
2022-12-08T18:10:58.187Z,11.27
2022-12-08T18:15:59.984Z,11.83
2022-12-08T18:21:03.141Z,11.47
2022-12-08T18:26:05.134Z,11.80
2022-12-08T18:31:08.464Z,10.77
2022-12-08T18:36:13.765Z,12.70
2022-12-08T18:41:16.631Z,14.67
2022-12-08T18:46:18.409Z,12.53
2022-12-08T18:51:22.465Z,13.07
2022-12-08T18:56:25.045Z,13.00
2022-12-08T19:01:26.960Z,13.33
2022-12-08T19:06:30.177Z,11.67
2022-12-08T19:11:31.934Z,10.03
2022-12-08T19:16:33.771Z,10.87
2022-12-08T19:21:42.883Z,10.50
2022-12-08T19:26:47.781Z,13.03
2022-12-08T19:31:49.653Z,68.33
2022-12-08T19:36:52.839Z,31.87
2022-12-08T19:42:12.949Z,36.73
2022-12-08T19:47:14.902Z,27.30
2022-12-08T19:52:18.077Z,21.50
2022-12-08T19:57:20.386Z,15.80
2022-12-08T20:02:22.167Z,24.00
2022-12-08T20:07:25.397Z,21.40
2022-12-08T20:12:27.143Z,21.03
2022-12-08T20:17:28.834Z,17.17
2022-12-08T20:22:31.883Z,19.47
2022-12-08T20:27:33.632Z,20.40
2022-12-08T20:32:35.387Z,31.13
2022-12-08T20:37:38.432Z,25.03
2022-12-08T20:42:40.203Z,32.33
2022-12-08T20:47:41.965Z,44.00
2022-12-08T20:52:45.141Z,19.40
2022-12-08T20:57:46.842Z,20.63
2022-12-08T21:02:54.782Z,18.27
2022-12-08T21:07:59.537Z,19.40
2022-12-08T21:13:05.474Z,19.60
2022-12-08T21:18:07.454Z,24.33
2022-12-08T21:23:10.765Z,28.87
2022-12-08T21:28:12.669Z,30.47
2022-12-08T21:33:14.575Z,22.37
2022-12-08T21:38:18.162Z,20.77
2022-12-08T21:43:20.121Z,26.77
2022-12-08T21:48:21.980Z,19.57
2022-12-08T21:53:26.489Z,17.73
2022-12-08T21:58:28.547Z,19.23
2022-12-08T22:03:30.720Z,17.70
2022-12-08T22:08:34.022Z,18.93
2022-12-08T22:13:36.353Z,21.10
2022-12-08T22:18:38.287Z,23.67
2022-12-08T22:23:41.692Z,20.77
2022-12-08T22:28:44.425Z,20.00
2022-12-08T22:33:46.483Z,20.33
2022-12-08T22:38:49.892Z,19.57
2022-12-08T22:43:51.838Z,20.70
2022-12-08T22:48:54.176Z,22.30
2022-12-08T22:53:57.500Z,21.97
2022-12-08T22:58:59.461Z,21.27
2022-12-08T23:04:01.526Z,21.97
2022-12-08T23:09:05.392Z,24.00
2022-12-08T23:14:07.411Z,28.13
2022-12-08T23:19:09.589Z,31.07
2022-12-08T23:24:12.958Z,37.63
2022-12-08T23:29:15.450Z,33.57
2022-12-08T23:34:17.461Z,37.33
2022-12-08T23:39:24.121Z,30.60
2022-12-08T23:44:26.031Z,28.70
2022-12-08T23:49:28.085Z,30.57
2022-12-08T23:54:31.335Z,29.57
2022-12-08T23:59:33.189Z,27.87
